sensor_id;sensor_type;location;lat;lon;timestamp;P1;durP1;ratioP1;P2;durP2;ratioP2
45676;SDS011;31390;51.186;6.830;2022-09-30T00:01:23;30.20;;;19.58;;
45676;SDS011;31390;51.186;6.830;2022-09-30T00:03:55;24.95;;;17.52;;
45676;SDS011;31390;51.186;6.830;2022-09-30T00:06:23;23.58;;;16.98;;
45676;SDS011;31390;51.186;6.830;2022-09-30T00:08:49;27.73;;;19.08;;
45676;SDS011;31390;51.186;6.830;2022-09-30T00:11:17;25.48;;;18.25;;
45676;SDS011;31390;51.186;6.830;2022-09-30T00:13:45;40.63;;;25.15;;
45676;SDS011;31390;51.186;6.830;2022-09-30T00:16:12;41.58;;;27.50;;
45676;SDS011;31390;51.186;6.830;2022-09-30T00:18:39;39.13;;;26.42;;
45676;SDS011;31390;51.186;6.830;2022-09-30T00:21:06;32.22;;;23.33;;
45676;SDS011;31390;51.186;6.830;2022-09-30T00:23:34;29.73;;;23.25;;
45676;SDS011;31390;51.186;6.830;2022-09-30T00:26:02;25.85;;;20.52;;
45676;SDS011;31390;51.186;6.830;2022-09-30T00:28:29;32.03;;;23.38;;
45676;SDS011;31390;51.186;6.830;2022-09-30T00:30:59;26.27;;;20.35;;
45676;SDS011;31390;51.186;6.830;2022-09-30T00:33:26;28.77;;;20.60;;
45676;SDS011;31390;51.186;6.830;2022-09-30T00:35:53;25.40;;;17.77;;
45676;SDS011;31390;51.186;6.830;2022-09-30T00:38:19;22.95;;;17.77;;
45676;SDS011;31390;51.186;6.830;2022-09-30T00:40:46;22.63;;;18.20;;
45676;SDS011;31390;51.186;6.830;2022-09-30T00:43:13;28.00;;;19.30;;
45676;SDS011;31390;51.186;6.830;2022-09-30T00:45:46;28.17;;;20.35;;
45676;SDS011;31390;51.186;6.830;2022-09-30T00:48:16;22.30;;;16.27;;
45676;SDS011;31390;51.186;6.830;2022-09-30T00:50:44;18.75;;;16.55;;
45676;SDS011;31390;51.186;6.830;2022-09-30T00:53:16;16.70;;;15.00;;
45676;SDS011;31390;51.186;6.830;2022-09-30T00:58:29;19.55;;;16.92;;
45676;SDS011;31390;51.186;6.830;2022-09-30T01:00:56;20.75;;;15.57;;
45676;SDS011;31390;51.186;6.830;2022-09-30T01:03:24;17.13;;;15.18;;
45676;SDS011;31390;51.186;6.830;2022-09-30T01:05:51;15.18;;;13.68;;
45676;SDS011;31390;51.186;6.830;2022-09-30T01:08:18;21.17;;;15.98;;
45676;SDS011;31390;51.186;6.830;2022-09-30T01:10:45;18.38;;;15.15;;
45676;SDS011;31390;51.186;6.830;2022-09-30T01:13:12;20.55;;;17.90;;
45676;SDS011;31390;51.186;6.830;2022-09-30T01:15:43;16.88;;;14.68;;
45676;SDS011;31390;51.186;6.830;2022-09-30T01:18:17;19.33;;;15.27;;
45676;SDS011;31390;51.186;6.830;2022-09-30T01:20:53;16.13;;;14.40;;
45676;SDS011;31390;51.186;6.830;2022-09-30T01:23:33;15.48;;;14.05;;
45676;SDS011;31390;51.186;6.830;2022-09-30T01:28:54;15.77;;;13.60;;
45676;SDS011;31390;51.186;6.830;2022-09-30T01:36:51;16.30;;;14.43;;
45676;SDS011;31390;51.186;6.830;2022-09-30T01:44:37;17.10;;;15.30;;
45676;SDS011;31390;51.186;6.830;2022-09-30T01:47:10;22.98;;;17.13;;
45676;SDS011;31390;51.186;6.830;2022-09-30T01:49:44;16.10;;;14.48;;
45676;SDS011;31390;51.186;6.830;2022-09-30T01:52:15;16.40;;;14.75;;
45676;SDS011;31390;51.186;6.830;2022-09-30T01:54:51;15.68;;;13.23;;
45676;SDS011;31390;51.186;6.830;2022-09-30T01:57:26;14.18;;;12.52;;
45676;SDS011;31390;51.186;6.830;2022-09-30T01:59:56;15.80;;;14.20;;
45676;SDS011;31390;51.186;6.830;2022-09-30T02:02:26;16.58;;;14.27;;
45676;SDS011;31390;51.186;6.830;2022-09-30T02:04:54;14.48;;;12.40;;
45676;SDS011;31390;51.186;6.830;2022-09-30T02:07:25;17.88;;;13.68;;
45676;SDS011;31390;51.186;6.830;2022-09-30T02:09:55;15.93;;;14.38;;
45676;SDS011;31390;51.186;6.830;2022-09-30T02:12:24;17.42;;;13.77;;
45676;SDS011;31390;51.186;6.830;2022-09-30T02:14:55;13.32;;;12.05;;
45676;SDS011;31390;51.186;6.830;2022-09-30T02:17:27;16.00;;;13.55;;
45676;SDS011;31390;51.186;6.830;2022-09-30T02:19:59;14.63;;;13.10;;
45676;SDS011;31390;51.186;6.830;2022-09-30T02:22:30;18.85;;;15.82;;
45676;SDS011;31390;51.186;6.830;2022-09-30T02:25:01;14.18;;;12.90;;
45676;SDS011;31390;51.186;6.830;2022-09-30T02:27:32;14.35;;;13.00;;
45676;SDS011;31390;51.186;6.830;2022-09-30T02:29:59;14.30;;;12.90;;
45676;SDS011;31390;51.186;6.830;2022-09-30T02:32:30;17.48;;;15.15;;
45676;SDS011;31390;51.186;6.830;2022-09-30T02:34:59;13.98;;;12.68;;
45676;SDS011;31390;51.186;6.830;2022-09-30T02:37:38;13.98;;;12.45;;
45676;SDS011;31390;51.186;6.830;2022-09-30T02:40:10;19.00;;;15.85;;
45676;SDS011;31390;51.186;6.830;2022-09-30T02:42:38;16.45;;;14.75;;
45676;SDS011;31390;51.186;6.830;2022-09-30T02:45:07;15.13;;;13.65;;
45676;SDS011;31390;51.186;6.830;2022-09-30T02:55:18;19.55;;;14.48;;
45676;SDS011;31390;51.186;6.830;2022-09-30T02:58:05;22.95;;;16.75;;
45676;SDS011;31390;51.186;6.830;2022-09-30T03:00:33;15.18;;;13.65;;
45676;SDS011;31390;51.186;6.830;2022-09-30T03:03:04;17.85;;;15.48;;
45676;SDS011;31390;51.186;6.830;2022-09-30T03:05:33;23.02;;;15.88;;
45676;SDS011;31390;51.186;6.830;2022-09-30T03:08:00;16.05;;;14.45;;
45676;SDS011;31390;51.186;6.830;2022-09-30T03:10:26;22.25;;;15.05;;
45676;SDS011;31390;51.186;6.830;2022-09-30T03:21:46;17.45;;;14.88;;
45676;SDS011;31390;51.186;6.830;2022-09-30T03:26:12;17.48;;;15.77;;
45676;SDS011;31390;51.186;6.830;2022-09-30T03:33:52;19.17;;;17.08;;
45676;SDS011;31390;51.186;6.830;2022-09-30T03:36:23;15.90;;;14.23;;
45676;SDS011;31390;51.186;6.830;2022-09-30T03:41:27;16.25;;;14.55;;
45676;SDS011;31390;51.186;6.830;2022-09-30T03:44:04;13.63;;;12.25;;
45676;SDS011;31390;51.186;6.830;2022-09-30T03:46:33;16.33;;;14.32;;
45676;SDS011;31390;51.186;6.830;2022-09-30T03:49:03;16.70;;;14.93;;
45676;SDS011;31390;51.186;6.830;2022-09-30T03:51:31;14.65;;;13.20;;
45676;SDS011;31390;51.186;6.830;2022-09-30T03:54:00;14.85;;;12.65;;
45676;SDS011;31390;51.186;6.830;2022-09-30T03:56:29;19.65;;;17.58;;
45676;SDS011;31390;51.186;6.830;2022-09-30T03:58:56;18.38;;;14.30;;
45676;SDS011;31390;51.186;6.830;2022-09-30T04:01:23;15.73;;;14.15;;
45676;SDS011;31390;51.186;6.830;2022-09-30T04:03:50;14.27;;;12.88;;
45676;SDS011;31390;51.186;6.830;2022-09-30T04:06:21;13.77;;;12.40;;
45676;SDS011;31390;51.186;6.830;2022-09-30T04:08:47;17.15;;;15.18;;
45676;SDS011;31390;51.186;6.830;2022-09-30T04:11:15;15.02;;;13.55;;
45676;SDS011;31390;51.186;6.830;2022-09-30T04:13:41;14.38;;;12.18;;
45676;SDS011;31390;51.186;6.830;2022-09-30T04:16:08;16.00;;;13.25;;
45676;SDS011;31390;51.186;6.830;2022-09-30T04:18:35;14.13;;;12.43;;
45676;SDS011;31390;51.186;6.830;2022-09-30T04:21:09;15.07;;;13.43;;
45676;SDS011;31390;51.186;6.830;2022-09-30T04:23:41;18.70;;;15.27;;
45676;SDS011;31390;51.186;6.830;2022-09-30T04:26:10;14.20;;;12.90;;
45676;SDS011;31390;51.186;6.830;2022-09-30T04:28:37;18.15;;;14.25;;
45676;SDS011;31390;51.186;6.830;2022-09-30T04:31:04;20.98;;;16.85;;
45676;SDS011;31390;51.186;6.830;2022-09-30T04:33:31;18.63;;;15.25;;
45676;SDS011;31390;51.186;6.830;2022-09-30T04:35:59;17.67;;;15.48;;
45676;SDS011;31390;51.186;6.830;2022-09-30T04:38:26;15.68;;;14.18;;
45676;SDS011;31390;51.186;6.830;2022-09-30T04:40:52;17.23;;;15.25;;
45676;SDS011;31390;51.186;6.830;2022-09-30T04:43:22;17.35;;;15.63;;
45676;SDS011;31390;51.186;6.830;2022-09-30T04:45:50;14.87;;;13.43;;
45676;SDS011;31390;51.186;6.830;2022-09-30T04:48:18;15.73;;;14.18;;
45676;SDS011;31390;51.186;6.830;2022-09-30T04:50:44;17.95;;;15.55;;
45676;SDS011;31390;51.186;6.830;2022-09-30T04:53:11;18.33;;;15.35;;
45676;SDS011;31390;51.186;6.830;2022-09-30T04:55:40;14.13;;;12.63;;
45676;SDS011;31390;51.186;6.830;2022-09-30T04:58:07;15.68;;;13.25;;
45676;SDS011;31390;51.186;6.830;2022-09-30T05:00:33;17.70;;;15.00;;
45676;SDS011;31390;51.186;6.830;2022-09-30T05:03:00;17.23;;;15.43;;
45676;SDS011;31390;51.186;6.830;2022-09-30T05:05:26;17.13;;;15.45;;
45676;SDS011;31390;51.186;6.830;2022-09-30T05:07:58;25.00;;;19.90;;
45676;SDS011;31390;51.186;6.830;2022-09-30T05:10:25;22.25;;;15.88;;
45676;SDS011;31390;51.186;6.830;2022-09-30T05:12:52;22.15;;;18.63;;
45676;SDS011;31390;51.186;6.830;2022-09-30T05:15:18;18.13;;;16.33;;
45676;SDS011;31390;51.186;6.830;2022-09-30T05:17:47;22.35;;;18.40;;
45676;SDS011;31390;51.186;6.830;2022-09-30T05:20:14;24.23;;;19.23;;
45676;SDS011;31390;51.186;6.830;2022-09-30T05:22:46;23.13;;;18.23;;
45676;SDS011;31390;51.186;6.830;2022-09-30T05:25:12;39.95;;;24.42;;
45676;SDS011;31390;51.186;6.830;2022-09-30T05:27:39;34.38;;;24.98;;
45676;SDS011;31390;51.186;6.830;2022-09-30T05:30:05;26.23;;;19.23;;
45676;SDS011;31390;51.186;6.830;2022-09-30T05:32:32;26.02;;;21.48;;
45676;SDS011;31390;51.186;6.830;2022-09-30T05:34:59;40.10;;;22.55;;
45676;SDS011;31390;51.186;6.830;2022-09-30T05:37:28;25.47;;;22.13;;
45676;SDS011;31390;51.186;6.830;2022-09-30T05:39:55;32.07;;;21.57;;
45676;SDS011;31390;51.186;6.830;2022-09-30T05:42:22;24.20;;;18.63;;
45676;SDS011;31390;51.186;6.830;2022-09-30T05:44:48;20.08;;;18.08;;
45676;SDS011;31390;51.186;6.830;2022-09-30T05:47:15;29.85;;;21.90;;
45676;SDS011;31390;51.186;6.830;2022-09-30T05:49:42;21.77;;;18.45;;
45676;SDS011;31390;51.186;6.830;2022-09-30T05:52:09;23.88;;;21.40;;
45676;SDS011;31390;51.186;6.830;2022-09-30T05:54:38;30.52;;;20.85;;
45676;SDS011;31390;51.186;6.830;2022-09-30T05:57:05;21.55;;;18.67;;
45676;SDS011;31390;51.186;6.830;2022-09-30T05:59:33;19.70;;;17.80;;
45676;SDS011;31390;51.186;6.830;2022-09-30T06:01:59;23.55;;;21.25;;
45676;SDS011;31390;51.186;6.830;2022-09-30T06:04:26;23.83;;;21.20;;
45676;SDS011;31390;51.186;6.830;2022-09-30T06:06:53;22.58;;;20.20;;
45676;SDS011;31390;51.186;6.830;2022-09-30T06:09:19;26.35;;;23.52;;
45676;SDS011;31390;51.186;6.830;2022-09-30T06:11:46;22.42;;;20.23;;
45676;SDS011;31390;51.186;6.830;2022-09-30T06:14:13;22.50;;;19.83;;
45676;SDS011;31390;51.186;6.830;2022-09-30T06:16:45;25.42;;;21.48;;
45676;SDS011;31390;51.186;6.830;2022-09-30T06:19:15;22.75;;;20.45;;
45676;SDS011;31390;51.186;6.830;2022-09-30T06:21:42;19.60;;;17.50;;
45676;SDS011;31390;51.186;6.830;2022-09-30T06:24:09;20.00;;;18.10;;
45676;SDS011;31390;51.186;6.830;2022-09-30T06:26:44;23.85;;;18.70;;
45676;SDS011;31390;51.186;6.830;2022-09-30T06:29:11;29.30;;;22.52;;
45676;SDS011;31390;51.186;6.830;2022-09-30T06:31:38;25.75;;;22.10;;
45676;SDS011;31390;51.186;6.830;2022-09-30T06:34:05;27.88;;;23.02;;
45676;SDS011;31390;51.186;6.830;2022-09-30T06:36:35;23.70;;;21.25;;
45676;SDS011;31390;51.186;6.830;2022-09-30T06:39:02;26.08;;;23.48;;
45676;SDS011;31390;51.186;6.830;2022-09-30T06:41:29;28.30;;;25.27;;
45676;SDS011;31390;51.186;6.830;2022-09-30T06:43:58;24.85;;;22.35;;
45676;SDS011;31390;51.186;6.830;2022-09-30T06:46:30;29.20;;;26.00;;
45676;SDS011;31390;51.186;6.830;2022-09-30T06:48:57;36.17;;;27.08;;
45676;SDS011;31390;51.186;6.830;2022-09-30T06:51:48;29.58;;;25.52;;
45676;SDS011;31390;51.186;6.830;2022-09-30T06:54:16;26.25;;;23.70;;
45676;SDS011;31390;51.186;6.830;2022-09-30T06:56:46;36.40;;;28.25;;
45676;SDS011;31390;51.186;6.830;2022-09-30T06:59:13;33.30;;;27.27;;
45676;SDS011;31390;51.186;6.830;2022-09-30T07:01:42;30.98;;;27.50;;
45676;SDS011;31390;51.186;6.830;2022-09-30T07:04:10;29.85;;;26.77;;
45676;SDS011;31390;51.186;6.830;2022-09-30T07:06:40;26.23;;;23.63;;
45676;SDS011;31390;51.186;6.830;2022-09-30T07:09:08;24.08;;;21.67;;
45676;SDS011;31390;51.186;6.830;2022-09-30T07:11:35;32.20;;;28.77;;
45676;SDS011;31390;51.186;6.830;2022-09-30T07:14:03;35.20;;;29.88;;
45676;SDS011;31390;51.186;6.830;2022-09-30T07:16:30;32.15;;;27.65;;
45676;SDS011;31390;51.186;6.830;2022-09-30T07:18:59;31.92;;;28.52;;
45676;SDS011;31390;51.186;6.830;2022-09-30T07:21:27;26.90;;;24.33;;
45676;SDS011;31390;51.186;6.830;2022-09-30T07:23:53;30.23;;;26.95;;
45676;SDS011;31390;51.186;6.830;2022-09-30T07:26:22;30.42;;;24.70;;
45676;SDS011;31390;51.186;6.830;2022-09-30T07:28:49;30.85;;;24.55;;
45676;SDS011;31390;51.186;6.830;2022-09-30T07:31:18;27.42;;;24.73;;
45676;SDS011;31390;51.186;6.830;2022-09-30T07:33:59;25.70;;;23.02;;
45676;SDS011;31390;51.186;6.830;2022-09-30T07:36:25;25.13;;;22.73;;
45676;SDS011;31390;51.186;6.830;2022-09-30T07:38:58;24.52;;;21.90;;
45676;SDS011;31390;51.186;6.830;2022-09-30T07:41:33;22.33;;;20.23;;
45676;SDS011;31390;51.186;6.830;2022-09-30T07:44:01;23.95;;;21.42;;
45676;SDS011;31390;51.186;6.830;2022-09-30T07:46:31;22.33;;;20.08;;
45676;SDS011;31390;51.186;6.830;2022-09-30T07:49:00;25.35;;;20.08;;
45676;SDS011;31390;51.186;6.830;2022-09-30T07:51:32;22.95;;;20.05;;
45676;SDS011;31390;51.186;6.830;2022-09-30T07:54:05;22.95;;;20.75;;
45676;SDS011;31390;51.186;6.830;2022-09-30T07:56:34;21.95;;;19.92;;
45676;SDS011;31390;51.186;6.830;2022-09-30T07:59:26;19.80;;;17.88;;
45676;SDS011;31390;51.186;6.830;2022-09-30T08:01:53;20.58;;;18.42;;
45676;SDS011;31390;51.186;6.830;2022-09-30T08:04:20;21.50;;;19.30;;
45676;SDS011;31390;51.186;6.830;2022-09-30T08:06:49;20.90;;;17.88;;
45676;SDS011;31390;51.186;6.830;2022-09-30T08:09:16;18.45;;;16.65;;
45676;SDS011;31390;51.186;6.830;2022-09-30T08:11:44;19.13;;;17.10;;
45676;SDS011;31390;51.186;6.830;2022-09-30T08:14:14;23.65;;;17.30;;
45676;SDS011;31390;51.186;6.830;2022-09-30T08:16:40;18.17;;;16.48;;
45676;SDS011;31390;51.186;6.830;2022-09-30T08:19:08;18.42;;;16.63;;
45676;SDS011;31390;51.186;6.830;2022-09-30T08:21:37;16.83;;;15.23;;
45676;SDS011;31390;51.186;6.830;2022-09-30T08:24:05;15.95;;;14.38;;
45676;SDS011;31390;51.186;6.830;2022-09-30T08:26:32;18.00;;;16.20;;
45676;SDS011;31390;51.186;6.830;2022-09-30T08:29:03;18.20;;;16.45;;
45676;SDS011;31390;51.186;6.830;2022-09-30T08:31:30;16.83;;;15.13;;
45676;SDS011;31390;51.186;6.830;2022-09-30T08:33:59;19.63;;;15.60;;
45676;SDS011;31390;51.186;6.830;2022-09-30T08:36:27;15.75;;;14.07;;
45676;SDS011;31390;51.186;6.830;2022-09-30T08:38:53;20.05;;;17.17;;
45676;SDS011;31390;51.186;6.830;2022-09-30T08:51:50;16.60;;;14.93;;
45676;SDS011;31390;51.186;6.830;2022-09-30T08:54:18;16.67;;;14.98;;
45676;SDS011;31390;51.186;6.830;2022-09-30T08:56:46;17.92;;;16.15;;
45676;SDS011;31390;51.186;6.830;2022-09-30T09:01:43;16.95;;;15.30;;
45676;SDS011;31390;51.186;6.830;2022-09-30T09:04:13;16.55;;;14.52;;
45676;SDS011;31390;51.186;6.830;2022-09-30T09:07:46;14.52;;;13.05;;
45676;SDS011;31390;51.186;6.830;2022-09-30T09:09:40;18.40;;;16.60;;
45676;SDS011;31390;51.186;6.830;2022-09-30T09:12:32;16.15;;;14.45;;
45676;SDS011;31390;51.186;6.830;2022-09-30T09:20:14;21.15;;;19.05;;
45676;SDS011;31390;51.186;6.830;2022-09-30T09:22:41;17.30;;;15.52;;
45676;SDS011;31390;51.186;6.830;2022-09-30T09:25:11;18.05;;;16.15;;
45676;SDS011;31390;51.186;6.830;2022-09-30T09:30:12;18.95;;;16.92;;
45676;SDS011;31390;51.186;6.830;2022-09-30T09:32:38;17.23;;;15.10;;
45676;SDS011;31390;51.186;6.830;2022-09-30T09:35:11;16.17;;;14.57;;
45676;SDS011;31390;51.186;6.830;2022-09-30T09:37:53;17.48;;;15.05;;
45676;SDS011;31390;51.186;6.830;2022-09-30T09:43:21;15.88;;;14.13;;
45676;SDS011;31390;51.186;6.830;2022-09-30T09:48:25;14.52;;;13.02;;
45676;SDS011;31390;51.186;6.830;2022-09-30T09:56:04;12.25;;;11.02;;
45676;SDS011;31390;51.186;6.830;2022-09-30T09:58:39;15.23;;;12.50;;
45676;SDS011;31390;51.186;6.830;2022-09-30T10:01:27;15.85;;;13.18;;
45676;SDS011;31390;51.186;6.830;2022-09-30T10:06:49;12.68;;;11.38;;
45676;SDS011;31390;51.186;6.830;2022-09-30T10:11:56;13.13;;;11.13;;
45676;SDS011;31390;51.186;6.830;2022-09-30T10:14:38;12.98;;;10.75;;
45676;SDS011;31390;51.186;6.830;2022-09-30T10:17:20;12.90;;;11.70;;
45676;SDS011;31390;51.186;6.830;2022-09-30T10:19:48;13.30;;;12.07;;
45676;SDS011;31390;51.186;6.830;2022-09-30T10:22:17;12.80;;;11.57;;
45676;SDS011;31390;51.186;6.830;2022-09-30T10:24:44;12.90;;;10.75;;
45676;SDS011;31390;51.186;6.830;2022-09-30T10:27:45;12.07;;;9.63;;
45676;SDS011;31390;51.186;6.830;2022-09-30T10:30:04;13.27;;;10.20;;
45676;SDS011;31390;51.186;6.830;2022-09-30T10:32:31;11.13;;;10.13;;
45676;SDS011;31390;51.186;6.830;2022-09-30T10:35:15;10.68;;;9.05;;
45676;SDS011;31390;51.186;6.830;2022-09-30T10:37:52;10.60;;;8.80;;
45676;SDS011;31390;51.186;6.830;2022-09-30T10:40:19;10.65;;;9.57;;
45676;SDS011;31390;51.186;6.830;2022-09-30T10:42:52;12.90;;;9.55;;
45676;SDS011;31390;51.186;6.830;2022-09-30T10:45:23;10.18;;;9.05;;
45676;SDS011;31390;51.186;6.830;2022-09-30T10:47:52;11.40;;;8.85;;
45676;SDS011;31390;51.186;6.830;2022-09-30T10:50:20;9.80;;;8.80;;
45676;SDS011;31390;51.186;6.830;2022-09-30T10:57:47;10.25;;;7.78;;
45676;SDS011;31390;51.186;6.830;2022-09-30T11:00:19;9.38;;;7.65;;
45676;SDS011;31390;51.186;6.830;2022-09-30T11:05:37;9.23;;;6.85;;
45676;SDS011;31390;51.186;6.830;2022-09-30T11:13:27;9.18;;;6.97;;
45676;SDS011;31390;51.186;6.830;2022-09-30T11:18:44;9.95;;;7.25;;
45676;SDS011;31390;51.186;6.830;2022-09-30T11:21:27;7.53;;;6.72;;
45676;SDS011;31390;51.186;6.830;2022-09-30T11:23:56;8.48;;;6.82;;
45676;SDS011;31390;51.186;6.830;2022-09-30T11:26:28;8.05;;;7.25;;
45676;SDS011;31390;51.186;6.830;2022-09-30T11:29:05;7.82;;;7.00;;
45676;SDS011;31390;51.186;6.830;2022-09-30T11:39:25;8.95;;;6.47;;
45676;SDS011;31390;51.186;6.830;2022-09-30T11:41:57;9.55;;;7.05;;
45676;SDS011;31390;51.186;6.830;2022-09-30T11:47:01;8.02;;;7.30;;
45676;SDS011;31390;51.186;6.830;2022-09-30T11:57:22;8.55;;;6.70;;
45676;SDS011;31390;51.186;6.830;2022-09-30T11:59:54;7.53;;;6.30;;
45676;SDS011;31390;51.186;6.830;2022-09-30T12:02:30;7.78;;;6.95;;
45676;SDS011;31390;51.186;6.830;2022-09-30T12:05:02;10.02;;;6.65;;
45676;SDS011;31390;51.186;6.830;2022-09-30T12:07:38;7.40;;;5.97;;
45676;SDS011;31390;51.186;6.830;2022-09-30T12:10:13;9.57;;;6.13;;
45676;SDS011;31390;51.186;6.830;2022-09-30T12:12:42;10.50;;;7.20;;
45676;SDS011;31390;51.186;6.830;2022-09-30T12:15:11;13.68;;;11.45;;
45676;SDS011;31390;51.186;6.830;2022-09-30T12:17:45;9.80;;;7.32;;
45676;SDS011;31390;51.186;6.830;2022-09-30T12:20:25;7.95;;;6.50;;
45676;SDS011;31390;51.186;6.830;2022-09-30T12:22:54;7.50;;;5.57;;
45676;SDS011;31390;51.186;6.830;2022-09-30T12:25:30;7.43;;;5.80;;
45676;SDS011;31390;51.186;6.830;2022-09-30T12:28:07;7.25;;;5.53;;
45676;SDS011;31390;51.186;6.830;2022-09-30T12:31:18;5.97;;;5.30;;
45676;SDS011;31390;51.186;6.830;2022-09-30T12:36:42;7.00;;;4.97;;
45676;SDS011;31390;51.186;6.830;2022-09-30T12:44:55;5.65;;;4.60;;
45676;SDS011;31390;51.186;6.830;2022-09-30T12:47:39;7.85;;;4.97;;
45676;SDS011;31390;51.186;6.830;2022-09-30T12:50:13;7.63;;;5.32;;
45676;SDS011;31390;51.186;6.830;2022-09-30T12:52:41;8.63;;;5.07;;
45676;SDS011;31390;51.186;6.830;2022-09-30T12:55:51;6.80;;;4.70;;
45676;SDS011;31390;51.186;6.830;2022-09-30T12:57:58;4.47;;;4.07;;
45676;SDS011;31390;51.186;6.830;2022-09-30T13:00:28;5.22;;;3.70;;
45676;SDS011;31390;51.186;6.830;2022-09-30T13:03:04;6.40;;;4.10;;
45676;SDS011;31390;51.186;6.830;2022-09-30T13:15:40;5.30;;;3.25;;
45676;SDS011;31390;51.186;6.830;2022-09-30T13:26:01;6.15;;;2.70;;
45676;SDS011;31390;51.186;6.830;2022-09-30T13:28:29;9.43;;;2.80;;
45676;SDS011;31390;51.186;6.830;2022-09-30T13:36:31;2.97;;;2.40;;
45676;SDS011;31390;51.186;6.830;2022-09-30T13:44:27;3.35;;;2.75;;
45676;SDS011;31390;51.186;6.830;2022-09-30T13:46:58;3.35;;;2.70;;
45676;SDS011;31390;51.186;6.830;2022-09-30T14:00:15;3.10;;;2.40;;
45676;SDS011;31390;51.186;6.830;2022-09-30T14:05:32;3.15;;;2.05;;
45676;SDS011;31390;51.186;6.830;2022-09-30T14:12:59;3.33;;;1.98;;
45676;SDS011;31390;51.186;6.830;2022-09-30T14:21:03;4.88;;;2.35;;
45676;SDS011;31390;51.186;6.830;2022-09-30T14:23:37;3.33;;;2.75;;
45676;SDS011;31390;51.186;6.830;2022-09-30T14:28:46;3.90;;;3.22;;
45676;SDS011;31390;51.186;6.830;2022-09-30T14:31:18;6.10;;;4.45;;
45676;SDS011;31390;51.186;6.830;2022-09-30T14:33:46;5.00;;;3.20;;
45676;SDS011;31390;51.186;6.830;2022-09-30T14:36:17;6.38;;;3.33;;
45676;SDS011;31390;51.186;6.830;2022-09-30T14:38:45;5.00;;;3.30;;
45676;SDS011;31390;51.186;6.830;2022-09-30T14:41:16;8.50;;;3.72;;
45676;SDS011;31390;51.186;6.830;2022-09-30T14:43:43;4.45;;;3.50;;
45676;SDS011;31390;51.186;6.830;2022-09-30T14:46:32;5.85;;;3.38;;
45676;SDS011;31390;51.186;6.830;2022-09-30T14:49:08;3.63;;;3.20;;
45676;SDS011;31390;51.186;6.830;2022-09-30T14:51:38;3.92;;;3.53;;
45676;SDS011;31390;51.186;6.830;2022-09-30T14:54:21;5.53;;;3.60;;
45676;SDS011;31390;51.186;6.830;2022-09-30T14:56:48;5.32;;;3.35;;
45676;SDS011;31390;51.186;6.830;2022-09-30T14:59:17;6.60;;;3.53;;
45676;SDS011;31390;51.186;6.830;2022-09-30T15:01:44;4.43;;;3.05;;
45676;SDS011;31390;51.186;6.830;2022-09-30T15:04:17;3.63;;;3.08;;
45676;SDS011;31390;51.186;6.830;2022-09-30T15:06:47;3.72;;;3.15;;
45676;SDS011;31390;51.186;6.830;2022-09-30T15:11:53;4.70;;;3.22;;
45676;SDS011;31390;51.186;6.830;2022-09-30T15:14:21;3.90;;;3.45;;
45676;SDS011;31390;51.186;6.830;2022-09-30T15:16:55;5.28;;;3.15;;
45676;SDS011;31390;51.186;6.830;2022-09-30T15:19:31;3.80;;;3.00;;
45676;SDS011;31390;51.186;6.830;2022-09-30T15:22:04;3.08;;;2.70;;
45676;SDS011;31390;51.186;6.830;2022-09-30T15:24:31;3.53;;;2.55;;
45676;SDS011;31390;51.186;6.830;2022-09-30T15:26:59;4.38;;;2.85;;
45676;SDS011;31390;51.186;6.830;2022-09-30T15:29:26;4.00;;;2.92;;
45676;SDS011;31390;51.186;6.830;2022-09-30T15:34:29;4.18;;;3.40;;
45676;SDS011;31390;51.186;6.830;2022-09-30T15:36:59;3.55;;;3.08;;
45676;SDS011;31390;51.186;6.830;2022-09-30T15:39:33;4.18;;;3.13;;
45676;SDS011;31390;51.186;6.830;2022-09-30T15:47:52;3.42;;;2.50;;
45676;SDS011;31390;51.186;6.830;2022-09-30T15:53:18;3.95;;;2.72;;
45676;SDS011;31390;51.186;6.830;2022-09-30T15:55:51;2.33;;;2.00;;
45676;SDS011;31390;51.186;6.830;2022-09-30T16:03:45;4.55;;;1.90;;
45676;SDS011;31390;51.186;6.830;2022-09-30T16:06:12;5.32;;;2.10;;
45676;SDS011;31390;51.186;6.830;2022-09-30T16:08:44;2.80;;;1.60;;
45676;SDS011;31390;51.186;6.830;2022-09-30T16:11:46;1.48;;;1.38;;
45676;SDS011;31390;51.186;6.830;2022-09-30T16:14:07;2.30;;;1.50;;
45676;SDS011;31390;51.186;6.830;2022-09-30T16:16:35;2.13;;;1.33;;
45676;SDS011;31390;51.186;6.830;2022-09-30T16:19:03;1.63;;;1.40;;
45676;SDS011;31390;51.186;6.830;2022-09-30T16:26:48;2.15;;;1.42;;
45676;SDS011;31390;51.186;6.830;2022-09-30T16:29:15;1.05;;;1.05;;
45676;SDS011;31390;51.186;6.830;2022-09-30T16:31:43;4.47;;;1.75;;
45676;SDS011;31390;51.186;6.830;2022-09-30T16:36:43;1.40;;;1.30;;
45676;SDS011;31390;51.186;6.830;2022-09-30T16:39:11;1.67;;;1.40;;
45676;SDS011;31390;51.186;6.830;2022-09-30T16:41:40;2.45;;;1.50;;
45676;SDS011;31390;51.186;6.830;2022-09-30T16:44:06;1.75;;;1.40;;
45676;SDS011;31390;51.186;6.830;2022-09-30T16:46:33;2.20;;;1.70;;
45676;SDS011;31390;51.186;6.830;2022-09-30T16:49:18;5.20;;;2.08;;
45676;SDS011;31390;51.186;6.830;2022-09-30T16:51:45;2.17;;;1.35;;
45676;SDS011;31390;51.186;6.830;2022-09-30T16:54:12;2.15;;;1.30;;
45676;SDS011;31390;51.186;6.830;2022-09-30T16:56:38;2.42;;;1.48;;
45676;SDS011;31390;51.186;6.830;2022-09-30T16:59:06;1.30;;;1.00;;
45676;SDS011;31390;51.186;6.830;2022-09-30T17:01:34;3.55;;;1.45;;
45676;SDS011;31390;51.186;6.830;2022-09-30T17:04:00;4.25;;;1.35;;
45676;SDS011;31390;51.186;6.830;2022-09-30T17:06:27;2.38;;;1.25;;
45676;SDS011;31390;51.186;6.830;2022-09-30T17:08:54;1.48;;;1.23;;
45676;SDS011;31390;51.186;6.830;2022-09-30T17:11:25;2.08;;;1.30;;
45676;SDS011;31390;51.186;6.830;2022-09-30T17:13:53;3.30;;;1.17;;
45676;SDS011;31390;51.186;6.830;2022-09-30T17:16:19;3.33;;;1.20;;
45676;SDS011;31390;51.186;6.830;2022-09-30T17:18:46;3.75;;;1.65;;
45676;SDS011;31390;51.186;6.830;2022-09-30T17:21:16;2.08;;;1.40;;
45676;SDS011;31390;51.186;6.830;2022-09-30T17:23:43;1.63;;;1.52;;
45676;SDS011;31390;51.186;6.830;2022-09-30T17:26:10;2.55;;;2.15;;
45676;SDS011;31390;51.186;6.830;2022-09-30T17:28:36;3.85;;;3.42;;
45676;SDS011;31390;51.186;6.830;2022-09-30T17:31:03;12.05;;;10.88;;
45676;SDS011;31390;51.186;6.830;2022-09-30T17:33:30;8.88;;;7.28;;
45676;SDS011;31390;51.186;6.830;2022-09-30T17:35:57;8.30;;;6.70;;
45676;SDS011;31390;51.186;6.830;2022-09-30T17:38:24;11.95;;;9.35;;
45676;SDS011;31390;51.186;6.830;2022-09-30T17:40:51;17.58;;;13.80;;
45676;SDS011;31390;51.186;6.830;2022-09-30T17:43:36;18.48;;;16.55;;
45676;SDS011;31390;51.186;6.830;2022-09-30T17:46:02;25.52;;;20.65;;
45676;SDS011;31390;51.186;6.830;2022-09-30T17:48:29;13.43;;;11.32;;
45676;SDS011;31390;51.186;6.830;2022-09-30T17:50:56;17.90;;;13.93;;
45676;SDS011;31390;51.186;6.830;2022-09-30T17:53:22;14.23;;;9.70;;
45676;SDS011;31390;51.186;6.830;2022-09-30T17:55:59;22.77;;;15.77;;
45676;SDS011;31390;51.186;6.830;2022-09-30T17:58:25;12.73;;;10.15;;
45676;SDS011;31390;51.186;6.830;2022-09-30T18:00:53;11.57;;;8.82;;
45676;SDS011;31390;51.186;6.830;2022-09-30T18:03:19;9.77;;;6.80;;
45676;SDS011;31390;51.186;6.830;2022-09-30T18:05:47;7.88;;;5.28;;
45676;SDS011;31390;51.186;6.830;2022-09-30T18:08:13;7.43;;;4.78;;
45676;SDS011;31390;51.186;6.830;2022-09-30T18:10:40;6.18;;;5.15;;
45676;SDS011;31390;51.186;6.830;2022-09-30T18:13:06;6.90;;;5.80;;